createdAt,value
2023-02-18T00:01:02.608Z,2.03
2023-02-18T00:05:04.168Z,2.78
2023-02-18T00:09:06.379Z,2.95
2023-02-18T00:13:08.079Z,1.63
2023-02-18T00:17:09.602Z,1.17
2023-02-18T00:21:11.232Z,1.67
2023-02-18T00:25:12.714Z,2.75
2023-02-18T00:29:14.422Z,1.95
2023-02-18T00:33:15.943Z,2.10
2023-02-18T00:37:17.406Z,2.13
2023-02-18T00:41:20.484Z,2.13
2023-02-18T00:45:22.025Z,1.95
2023-02-18T00:49:23.512Z,1.35
2023-02-18T00:53:25.069Z,1.60
2023-02-18T00:57:26.753Z,1.30
2023-02-18T01:01:28.468Z,2.20
2023-02-18T01:05:30.010Z,1.75
2023-02-18T01:09:31.483Z,2.53
2023-02-18T01:13:33.232Z,2.58
2023-02-18T01:17:34.822Z,2.38
2023-02-18T01:21:36.393Z,1.52
2023-02-18T01:25:38.569Z,2.25
2023-02-18T01:29:40.226Z,1.33
2023-02-18T01:33:42.278Z,1.38
2023-02-18T01:37:43.839Z,2.35
2023-02-18T01:41:45.302Z,1.98
2023-02-18T01:45:51.511Z,2.10
2023-02-18T01:49:53.812Z,1.23
2023-02-18T01:54:24.858Z,2.13
2023-02-18T01:58:26.412Z,1.17
2023-02-18T02:02:33.092Z,2.60
2023-02-18T02:06:34.631Z,1.83
2023-02-18T02:10:50.658Z,1.88
2023-02-18T02:15:01.114Z,1.48
2023-02-18T02:19:28.161Z,1.25
2023-02-18T02:23:38.719Z,1.30
2023-02-18T02:27:59.076Z,2.25
2023-02-18T02:36:28.226Z,1.85
2023-02-18T02:40:44.020Z,1.25
2023-02-18T02:45:01.695Z,1.40
2023-02-18T02:49:32.979Z,1.17
2023-02-18T02:53:36.298Z,1.95
2023-02-18T02:57:46.700Z,2.35
2023-02-18T03:01:51.137Z,1.48
2023-02-18T03:06:14.243Z,1.42
2023-02-18T03:10:18.738Z,0.82
2023-02-18T03:14:29.896Z,1.42
2023-02-18T03:18:39.560Z,2.33
2023-02-18T03:22:46.752Z,1.40
2023-02-18T03:26:52.556Z,2.05
2023-02-18T03:30:58.768Z,1.42
2023-02-18T03:35:13.152Z,1.50
2023-02-18T03:39:16.739Z,2.75
2023-02-18T03:43:18.593Z,2.13
2023-02-18T03:47:20.338Z,1.15
2023-02-18T03:51:22.337Z,1.15
2023-02-18T03:55:23.863Z,1.52
2023-02-18T03:59:25.286Z,1.08
2023-02-18T04:03:26.796Z,1.25
2023-02-18T04:07:28.306Z,1.15
2023-02-18T04:11:30.019Z,1.17
2023-02-18T04:15:31.734Z,1.52
2023-02-18T04:19:33.190Z,1.05
2023-02-18T04:23:34.676Z,1.67
2023-02-18T04:27:36.088Z,1.40
2023-02-18T04:31:37.842Z,1.15
2023-02-18T04:35:42.041Z,1.70
2023-02-18T04:39:43.580Z,1.27
2023-02-18T04:43:45.020Z,1.33
2023-02-18T04:47:46.451Z,1.35
2023-02-18T04:51:47.849Z,1.83
2023-02-18T04:55:52.824Z,1.65
2023-02-18T04:59:54.236Z,1.25
2023-02-18T05:03:55.735Z,0.80
2023-02-18T05:07:57.257Z,1.23
2023-02-18T05:11:58.695Z,2.13
2023-02-18T05:16:00.625Z,1.15
2023-02-18T05:20:02.584Z,1.27
2023-02-18T05:24:04.328Z,1.02
2023-02-18T05:28:05.758Z,1.70
2023-02-18T05:32:07.280Z,1.23
2023-02-18T05:36:09.152Z,1.20
2023-02-18T05:40:12.024Z,1.27
2023-02-18T05:44:31.745Z,1.67
2023-02-18T05:48:33.134Z,1.27
2023-02-18T05:52:34.597Z,0.90
2023-02-18T05:56:36.198Z,0.95
2023-02-18T06:00:37.654Z,1.25
2023-02-18T06:04:40.510Z,1.35
2023-02-18T06:08:41.928Z,2.00
2023-02-18T06:12:43.438Z,1.13
2023-02-18T06:16:44.875Z,0.90
2023-02-18T06:20:49.888Z,1.77
2023-02-18T06:24:51.319Z,1.55
2023-02-18T06:28:53.003Z,1.95
2023-02-18T06:32:54.729Z,1.10
2023-02-18T06:36:56.436Z,1.25
2023-02-18T06:40:57.863Z,1.65
2023-02-18T06:44:59.384Z,1.40
2023-02-18T06:49:00.949Z,1.80
2023-02-18T06:53:02.447Z,0.80
2023-02-18T06:57:04.004Z,0.82
2023-02-18T07:01:05.610Z,1.25
2023-02-18T07:05:07.185Z,1.63
2023-02-18T07:09:08.965Z,1.30
2023-02-18T07:13:10.540Z,1.30
2023-02-18T07:17:11.984Z,1.95
2023-02-18T07:21:13.605Z,0.80
2023-02-18T07:25:15.449Z,0.70
2023-02-18T07:29:16.941Z,1.25
2023-02-18T07:33:18.453Z,0.90
2023-02-18T07:37:21.069Z,0.95
2023-02-18T07:41:23.616Z,1.10
2023-02-18T07:45:25.675Z,1.48
2023-02-18T07:49:27.596Z,0.73
2023-02-18T07:53:29.028Z,1.13
2023-02-18T07:57:30.446Z,0.90
2023-02-18T08:01:31.940Z,1.45
2023-02-18T08:05:33.411Z,2.08
2023-02-18T08:09:34.940Z,0.90
2023-02-18T08:13:36.418Z,2.10
2023-02-18T08:17:37.810Z,1.35
2023-02-18T08:21:39.353Z,1.33
2023-02-18T08:25:41.008Z,1.00
2023-02-18T08:29:42.430Z,0.80
2023-02-18T08:33:43.893Z,2.25
2023-02-18T08:37:52.255Z,1.52
2023-02-18T08:41:57.346Z,1.30
2023-02-18T08:45:59.364Z,1.35
2023-02-18T08:50:01.316Z,1.65
2023-02-18T08:54:03.089Z,2.15
2023-02-18T08:58:06.630Z,1.63
2023-02-18T09:02:08.168Z,1.60
2023-02-18T09:06:09.673Z,1.45
2023-02-18T09:10:11.571Z,2.03
2023-02-18T09:14:13.757Z,1.30
2023-02-18T09:18:15.199Z,2.40
2023-02-18T09:22:16.673Z,2.08
2023-02-18T09:26:23.341Z,1.58
2023-02-18T09:30:24.975Z,1.58
2023-02-18T09:34:26.403Z,1.50
2023-02-18T09:38:28.009Z,1.63
2023-02-18T09:42:34.101Z,1.65
2023-02-18T09:47:16.015Z,1.95
2023-02-18T09:51:18.774Z,1.90
2023-02-18T09:55:29.108Z,1.75
2023-02-18T09:59:30.931Z,2.13
2023-02-18T10:03:32.458Z,2.28
2023-02-18T10:07:36.106Z,2.20
2023-02-18T10:11:42.689Z,2.08
2023-02-18T10:15:46.366Z,1.92
2023-02-18T10:19:49.648Z,2.88
2023-02-18T10:24:29.254Z,2.00
2023-02-18T10:28:31.786Z,2.58
2023-02-18T10:32:38.058Z,2.10
2023-02-18T10:36:47.878Z,2.17
2023-02-18T10:40:59.962Z,1.92
2023-02-18T10:45:13.101Z,1.63
2023-02-18T10:49:41.720Z,2.17
2023-02-18T10:53:45.435Z,2.63
2023-02-18T10:57:55.138Z,1.52
2023-02-18T11:02:03.686Z,2.03
2023-02-18T11:06:15.015Z,1.42
2023-02-18T11:10:22.674Z,1.38
2023-02-18T11:14:38.355Z,1.58
2023-02-18T11:18:42.421Z,1.42
2023-02-18T11:22:44.204Z,1.75
2023-02-18T11:26:46.870Z,1.60
2023-02-18T11:30:54.101Z,1.67
2023-02-18T11:34:55.852Z,1.30
2023-02-18T11:39:07.559Z,1.23
2023-02-18T11:43:16.335Z,1.20
2023-02-18T11:47:20.383Z,1.60
2023-02-18T11:51:26.619Z,2.08
2023-02-18T11:55:31.034Z,2.10
2023-02-18T11:59:36.913Z,1.90
2023-02-18T12:04:05.989Z,2.03
2023-02-18T12:08:17.744Z,1.67
2023-02-18T12:12:28.276Z,0.98
2023-02-18T12:16:43.037Z,2.88
2023-02-18T12:20:59.542Z,2.63
2023-02-18T12:25:23.840Z,1.88
2023-02-18T12:30:09.052Z,2.70
2023-02-18T12:35:08.472Z,3.05
2023-02-18T12:39:25.460Z,2.17
2023-02-18T12:43:35.558Z,5.90
2023-02-18T12:48:11.597Z,3.22
2023-02-18T12:52:27.797Z,2.55
2023-02-18T12:56:54.195Z,2.25
2023-02-18T13:01:01.786Z,2.50
2023-02-18T13:05:21.888Z,3.20
2023-02-18T13:09:32.412Z,1.38
2023-02-18T13:13:44.904Z,1.90
2023-02-18T13:17:49.795Z,1.88
2023-02-18T13:21:54.752Z,1.20
2023-02-18T13:26:06.574Z,1.75
2023-02-18T13:30:11.005Z,1.38
2023-02-18T13:34:32.066Z,2.00
2023-02-18T13:39:09.217Z,2.70
2023-02-18T13:43:19.196Z,1.75
2023-02-18T13:47:38.780Z,2.00
2023-02-18T13:51:46.289Z,1.70
2023-02-18T13:55:56.477Z,2.35
2023-02-18T14:00:01.928Z,1.85
2023-02-18T14:04:04.288Z,1.70
2023-02-18T14:08:30.976Z,1.45
2023-02-18T14:12:52.060Z,1.48
2023-02-18T14:17:30.288Z,1.52
2023-02-18T14:21:36.324Z,1.80
2023-02-18T14:25:41.708Z,1.48
2023-02-18T14:29:43.274Z,1.88
2023-02-18T14:34:11.056Z,1.27
2023-02-18T14:38:40.373Z,1.60
2023-02-18T14:43:03.218Z,1.90
2023-02-18T14:47:37.186Z,2.17
2023-02-18T14:51:42.009Z,1.20
2023-02-18T14:55:47.166Z,1.00
2023-02-18T14:59:48.669Z,1.42
2023-02-18T15:03:52.617Z,1.65
2023-02-18T15:08:08.749Z,1.30
2023-02-18T15:12:10.362Z,0.82
2023-02-18T15:16:20.510Z,0.90
2023-02-18T15:20:23.407Z,0.95
2023-02-18T15:24:27.157Z,0.82
2023-02-18T15:28:31.333Z,1.05
2023-02-18T15:32:33.183Z,0.95
2023-02-18T15:36:34.642Z,0.88
2023-02-18T15:40:38.381Z,0.90
2023-02-18T15:44:47.345Z,1.20
2023-02-18T15:48:51.269Z,0.50
2023-02-18T15:52:55.372Z,0.90
2023-02-18T15:57:02.356Z,1.10
2023-02-18T16:01:07.595Z,1.15
2023-02-18T16:05:13.632Z,0.80
2023-02-18T16:09:24.200Z,0.90
2023-02-18T16:13:26.925Z,1.00
2023-02-18T16:17:29.891Z,0.90
2023-02-18T16:21:38.039Z,1.13
2023-02-18T16:25:43.908Z,1.08
2023-02-18T16:29:45.369Z,0.82
2023-02-18T16:33:49.027Z,0.70
2023-02-18T16:37:51.221Z,1.05
2023-02-18T16:41:52.674Z,0.75
2023-02-18T16:45:57.880Z,0.57
2023-02-18T16:49:59.937Z,0.75
2023-02-18T16:54:01.908Z,0.80
2023-02-18T16:58:03.537Z,0.60
2023-02-18T17:02:05.156Z,0.82
2023-02-18T17:06:06.739Z,0.80
2023-02-18T17:10:08.668Z,1.20
2023-02-18T17:14:14.525Z,1.20
2023-02-18T17:18:16.051Z,0.73
2023-02-18T17:22:17.510Z,1.27
2023-02-18T17:26:27.868Z,1.17
2023-02-18T17:30:31.898Z,1.35
2023-02-18T17:34:35.835Z,1.00
2023-02-18T17:38:37.605Z,1.25
2023-02-18T17:42:39.059Z,1.40
2023-02-18T17:46:40.592Z,2.15
2023-02-18T17:50:42.707Z,1.45
2023-02-18T17:54:44.143Z,1.20
2023-02-18T17:58:46.457Z,1.40
2023-02-18T18:02:48.412Z,1.33
2023-02-18T18:06:50.000Z,1.30
2023-02-18T18:10:54.867Z,1.67
2023-02-18T18:14:56.293Z,1.55
2023-02-18T18:18:57.885Z,1.98
2023-02-18T18:23:01.818Z,1.58
2023-02-18T18:27:03.506Z,1.85
2023-02-18T18:31:05.015Z,1.80
2023-02-18T18:35:26.785Z,2.00
2023-02-18T18:39:28.240Z,1.50
2023-02-18T18:43:33.278Z,1.90
2023-02-18T18:47:35.248Z,2.00
2023-02-18T18:51:36.817Z,1.40
2023-02-18T18:55:40.640Z,2.15
2023-02-18T18:59:42.126Z,1.77
2023-02-18T19:03:45.329Z,4.68
2023-02-18T19:07:48.236Z,2.10
2023-02-18T19:11:49.721Z,2.40
2023-02-18T19:16:01.654Z,2.50
2023-02-18T19:20:03.327Z,2.00
2023-02-18T19:24:15.769Z,2.70
2023-02-18T19:28:18.883Z,2.40
2023-02-18T19:32:21.378Z,3.88
2023-02-18T19:36:22.811Z,3.05
2023-02-18T19:40:26.596Z,3.15
2023-02-18T19:44:34.470Z,3.03
2023-02-18T19:48:36.022Z,3.05
2023-02-18T19:52:37.596Z,3.17
2023-02-18T19:56:39.118Z,3.20
2023-02-18T20:00:40.661Z,3.40
2023-02-18T20:04:42.778Z,3.35
2023-02-18T20:08:45.155Z,3.78
2023-02-18T20:12:52.083Z,4.07
2023-02-18T20:16:54.256Z,3.20
2023-02-18T20:20:55.843Z,4.38
2023-02-18T20:24:57.346Z,3.28
2023-02-18T20:28:58.916Z,3.58
2023-02-18T20:33:00.366Z,3.70
2023-02-18T20:37:01.973Z,3.83
2023-02-18T20:41:12.332Z,3.03
2023-02-18T20:45:14.085Z,3.53
2023-02-18T20:49:18.206Z,5.10
2023-02-18T20:53:19.770Z,4.35
2023-02-18T20:57:21.341Z,4.13
2023-02-18T21:01:22.861Z,3.92
2023-02-18T21:05:24.460Z,3.92
2023-02-18T21:09:26.068Z,4.32
2023-02-18T21:13:27.600Z,4.05
2023-02-18T21:17:29.079Z,4.10
2023-02-18T21:21:30.687Z,3.83
2023-02-18T21:25:33.003Z,4.35
2023-02-18T21:29:34.633Z,4.25
2023-02-18T21:33:36.040Z,4.32
2023-02-18T21:37:37.646Z,4.45
2023-02-18T21:41:41.225Z,3.70
2023-02-18T21:45:42.966Z,3.88
2023-02-18T21:49:44.467Z,3.53
2023-02-18T21:53:45.988Z,3.85
2023-02-18T21:57:47.416Z,2.90
2023-02-18T22:01:49.247Z,3.45
2023-02-18T22:05:50.716Z,3.00
2023-02-18T22:09:53.764Z,3.50
2023-02-18T22:13:55.258Z,3.40
2023-02-18T22:17:56.746Z,3.75
2023-02-18T22:21:58.524Z,3.78
2023-02-18T22:26:05.186Z,3.72
2023-02-18T22:30:07.152Z,4.13
2023-02-18T22:34:09.307Z,4.40
2023-02-18T22:38:10.760Z,4.03
2023-02-18T22:42:12.186Z,3.90
2023-02-18T22:46:16.157Z,3.85
2023-02-18T22:50:17.710Z,4.25
2023-02-18T22:54:20.007Z,4.13
2023-02-18T22:58:21.515Z,4.15
2023-02-18T23:02:24.964Z,4.90
2023-02-18T23:06:26.423Z,4.50
2023-02-18T23:10:27.884Z,4.07
2023-02-18T23:14:30.414Z,4.35
2023-02-18T23:18:33.874Z,4.80
2023-02-18T23:22:35.551Z,4.32
2023-02-18T23:26:36.980Z,4.35
2023-02-18T23:30:38.510Z,4.07
2023-02-18T23:34:40.211Z,4.57
2023-02-18T23:38:41.939Z,4.53
2023-02-18T23:42:43.368Z,5.25
2023-02-18T23:46:45.024Z,4.50
2023-02-18T23:50:46.445Z,4.13
2023-02-18T23:54:47.895Z,4.03
2023-02-18T23:58:52.392Z,4.95
